Aeroporto :
LOGIN :

Iscrizione | Disclaimer

   EN    FR    IT 

 










Sommario :    VFR   VFR Marginale   IFR   IFR Intensivo   IFR Molto Intensivo
Visibilità : 
Base nubi : 
>= 8 km
>= 3000ft
5 / 8 km
1000 / 3000 ft
1500m / 5 km
500 / 1000 ft
800 / 1500m
200 / 500 ft
< 800m
< 200 ft
Simboli :   Temporali  Nebbia  Neve Forte  Precipitazioni Forti  Vento > 20 kt
SIGMETs :   Varie  Temporali  Ghiacco  Turbolenza  Onda orograficha  Ceneri Vulcaniche







- Altitudine del aeroporto : 95 ft
- Codice IATA : AHU


GMTA - Al Hoceima

ULTIMO METAR :
  • 232200Z 06008KT 9999 SCT030 16/10 Q1020 NOSIG

METARs OBSOLETI :
  • 232100Z 06006KT CAVOK 16/10 Q1020 NOSIG
  • 232002Z 12006KT 9999 FEW030 SCT100 16/10 Q1020 B0

TAF TAF GMTA
Valido dal 23 a 18 ore il 25 a 00 ore UTC


231700Z 2318/2424 08018G33KT 9999 FEW020
BECMG 2319/2322 35013KT
BECMG 2412/2415 BKN010
PROB30 2414/2418 5000 -TSRA BKN010TCU
Nessun NOTAM noto per questo aeroporto.
2 SIGMETs conosciuti per la FIR Casablanca (GMMM) :
 
Temporali affogati
GMMM SIGMET A2 VALID 232125/232240 GMMC
GMMM CASABLANCA FIR EMBD TS OBS WI N3241 W01001 - N3115 W01033 - N29 49 W01025 - N3145 W00913 TOP FL230 MOV NE NC=
Temporali affogati
GMMM SIGMET 04 VALID 232100/232245 GMMC
GMMM CASABLANCA FIR EMBD TS OBS WI N3434 W00445 - N3329 W00535 - N34 10 W00318 TOP FL320 MOV E NC=



MetMap, La meteo Aeronautica in un colpo d'occhio ! - Copyright ORBIFLY Dicembre 2007 - Disclaimer

ORBIFLY MET'MAP TEAM :

Programmazione e sviluppo : Alexandra Zaïnal
Concezione e sviluppo : Baudouin d'Aumeries
Co-Programmazione e sviluppo : Marc-Olivier Méhu
Supporto tecnico e logistico : Manuel Goepfert
Aiuto per la traduzione : Arnaldo La Scala

Contatto : metmap@orbifly.com




FONTI E CREDITI :

   NOAA